sensor_id;sensor_type;location;lat;lon;timestamp;pressure;altitude;pressure_sealevel;temperature;humidity
20628;BME280;10473;42.734;24.258;2023-11-21T00:00:17;91642.78;;;4.99;72.57
20628;BME280;10473;42.734;24.258;2023-11-21T00:02:45;91644.91;;;5.09;72.29
20628;BME280;10473;42.734;24.258;2023-11-21T00:05:13;91640.94;;;5.15;70.79
20628;BME280;10473;42.734;24.258;2023-11-21T00:07:42;91637.78;;;4.94;72.28
20628;BME280;10473;42.734;24.258;2023-11-21T00:10:10;91628.28;;;5.05;71.78
20628;BME280;10473;42.734;24.258;2023-11-21T00:12:42;91633.88;;;4.88;71.98
20628;BME280;10473;42.734;24.258;2023-11-21T00:15:10;91601.06;;;4.66;73.21
20628;BME280;10473;42.734;24.258;2023-11-21T00:17:38;91631.84;;;4.97;71.72
20628;BME280;10473;42.734;24.258;2023-11-21T00:20:07;91636.22;;;4.77;73.56
20628;BME280;10473;42.734;24.258;2023-11-21T00:22:35;91637.78;;;4.94;72.83
20628;BME280;10473;42.734;24.258;2023-11-21T00:25:03;91640.16;;;4.99;72.07
20628;BME280;10473;42.734;24.258;2023-11-21T00:27:31;91640.16;;;4.99;73.20
20628;BME280;10473;42.734;24.258;2023-11-21T00:30:00;91638.91;;;5.08;72.50
20628;BME280;10473;42.734;24.258;2023-11-21T00:32:30;91639.66;;;5.09;71.89
20628;BME280;10473;42.734;24.258;2023-11-21T00:34:58;91639.06;;;5.15;71.91
20628;BME280;10473;42.734;24.258;2023-11-21T00:37:28;91636.38;;;5.12;72.20
20628;BME280;10473;42.734;24.258;2023-11-21T00:39:58;91639.16;;;5.19;71.38
20628;BME280;10473;42.734;24.258;2023-11-21T00:42:26;91642.88;;;5.18;71.87
20628;BME280;10473;42.734;24.258;2023-11-21T00:44:53;91640.69;;;5.20;72.02
20628;BME280;10473;42.734;24.258;2023-11-21T00:47:22;91640.78;;;5.23;71.58
20628;BME280;10473;42.734;24.258;2023-11-21T00:49:50;91640.00;;;5.23;71.75
20628;BME280;10473;42.734;24.258;2023-11-21T00:52:18;91641.53;;;5.24;71.59
20628;BME280;10473;42.734;24.258;2023-11-21T00:54:46;91634.75;;;5.23;71.65
20628;BME280;10473;42.734;24.258;2023-11-21T00:57:14;91634.34;;;5.21;71.84
20628;BME280;10473;42.734;24.258;2023-11-21T00:59:42;91638.41;;;5.18;71.80
20628;BME280;10473;42.734;24.258;2023-11-21T01:02:10;91632.38;;;5.18;71.28
20628;BME280;10473;42.734;24.258;2023-11-21T01:04:39;91627.13;;;5.18;71.61
20628;BME280;10473;42.734;24.258;2023-11-21T01:07:06;91627.91;;;5.18;72.06
20628;BME280;10473;42.734;24.258;2023-11-21T01:09:34;91618.06;;;5.15;72.35
20628;BME280;10473;42.734;24.258;2023-11-21T01:12:02;91642.22;;;5.21;72.34
20628;BME280;10473;42.734;24.258;2023-11-21T01:14:30;91636.28;;;5.24;71.45
20628;BME280;10473;42.734;24.258;2023-11-21T01:16:58;91639.75;;;5.28;71.87
20628;BME280;10473;42.734;24.258;2023-11-21T01:19:25;91641.72;;;5.31;70.52
20628;BME280;10473;42.734;24.258;2023-11-21T01:21:56;91641.63;;;5.27;71.11
20628;BME280;10473;42.734;24.258;2023-11-21T01:24:24;91644.84;;;5.21;70.84
20628;BME280;10473;42.734;24.258;2023-11-21T01:26:52;91640.00;;;5.23;70.44
20628;BME280;10473;42.734;24.258;2023-11-21T01:29:19;91639.94;;;5.19;71.16
20628;BME280;10473;42.734;24.258;2023-11-21T01:31:47;91646.78;;;5.24;70.61
20628;BME280;10473;42.734;24.258;2023-11-21T01:34:15;91639.34;;;5.26;71.59
20628;BME280;10473;42.734;24.258;2023-11-21T01:36:42;91632.56;;;5.25;70.81
20628;BME280;10473;42.734;24.258;2023-11-21T01:39:12;91624.09;;;5.16;70.85
20628;BME280;10473;42.734;24.258;2023-11-21T01:41:42;91623.84;;;5.21;70.87
20628;BME280;10473;42.734;24.258;2023-11-21T01:44:11;91624.16;;;5.19;70.47
20628;BME280;10473;42.734;24.258;2023-11-21T01:46:40;91616.63;;;5.18;71.32
20628;BME280;10473;42.734;24.258;2023-11-21T01:49:08;91605.97;;;5.11;71.17
20628;BME280;10473;42.734;24.258;2023-11-21T01:51:40;91602.22;;;5.12;71.75
20628;BME280;10473;42.734;24.258;2023-11-21T01:54:10;91601.56;;;5.15;71.29
20628;BME280;10473;42.734;24.258;2023-11-21T01:56:39;91597.41;;;5.14;72.39
20628;BME280;10473;42.734;24.258;2023-11-21T01:59:07;91602.66;;;5.14;72.16
20628;BME280;10473;42.734;24.258;2023-11-21T02:01:35;91600.59;;;5.07;71.79
20628;BME280;10473;42.734;24.258;2023-11-21T02:04:03;91605.97;;;5.11;71.47
20628;BME280;10473;42.734;24.258;2023-11-21T02:06:31;91608.56;;;4.95;71.61
20628;BME280;10473;42.734;24.258;2023-11-21T02:08:58;91614.75;;;5.03;72.61
20628;BME280;10473;42.734;24.258;2023-11-21T02:11:27;91628.63;;;4.88;71.70
20628;BME280;10473;42.734;24.258;2023-11-21T02:13:57;91617.47;;;4.91;71.60
20628;BME280;10473;42.734;24.258;2023-11-21T02:16:27;91611.53;;;4.94;72.78
20628;BME280;10473;42.734;24.258;2023-11-21T02:18:57;91609.75;;;4.98;72.34
20628;BME280;10473;42.734;24.258;2023-11-21T02:21:25;91609.34;;;4.96;72.24
20628;BME280;10473;42.734;24.258;2023-11-21T02:23:54;91604.91;;;5.00;72.40
20628;BME280;10473;42.734;24.258;2023-11-21T02:26:22;91607.13;;;4.98;71.58
20628;BME280;10473;42.734;24.258;2023-11-21T02:28:51;91608.22;;;4.97;72.45
20628;BME280;10473;42.734;24.258;2023-11-21T02:31:20;91609.34;;;4.96;72.09
20628;BME280;10473;42.734;24.258;2023-11-21T02:33:49;91611.59;;;4.97;71.72
20628;BME280;10473;42.734;24.258;2023-11-21T02:36:16;91616.78;;;4.94;72.20
20628;BME280;10473;42.734;24.258;2023-11-21T02:38:45;91614.41;;;4.89;71.99
20628;BME280;10473;42.734;24.258;2023-11-21T02:41:14;91617.25;;;4.84;72.46
20628;BME280;10473;42.734;24.258;2023-11-21T02:43:42;91616.59;;;4.87;73.18
20628;BME280;10473;42.734;24.258;2023-11-21T02:46:10;91612.22;;;4.91;72.94
20628;BME280;10473;42.734;24.258;2023-11-21T02:48:39;91616.28;;;4.88;73.18
20628;BME280;10473;42.734;24.258;2023-11-21T02:51:07;91602.47;;;4.91;72.00
20628;BME280;10473;42.734;24.258;2023-11-21T02:53:35;91609.34;;;4.96;72.49
20628;BME280;10473;42.734;24.258;2023-11-21T02:56:05;91607.91;;;4.98;72.68
20628;BME280;10473;42.734;24.258;2023-11-21T02:58:34;91596.22;;;4.96;72.20
20628;BME280;10473;42.734;24.258;2023-11-21T03:01:02;91595.84;;;4.97;71.95
20628;BME280;10473;42.734;24.258;2023-11-21T03:03:31;91594.34;;;4.96;71.84
20628;BME280;10473;42.734;24.258;2023-11-21T03:05:59;91600.38;;;4.97;71.77
20628;BME280;10473;42.734;24.258;2023-11-21T03:08:27;91609.34;;;4.96;71.13
20628;BME280;10473;42.734;24.258;2023-11-21T03:10:55;91606.72;;;4.96;72.13
20628;BME280;10473;42.734;24.258;2023-11-21T03:13:23;91599.59;;;4.96;70.80
20628;BME280;10473;42.734;24.258;2023-11-21T03:15:52;91604.34;;;4.91;71.96
20628;BME280;10473;42.734;24.258;2023-11-21T03:18:20;91607.63;;;4.88;70.85
20628;BME280;10473;42.734;24.258;2023-11-21T03:20:48;91612.22;;;4.91;71.99
20628;BME280;10473;42.734;24.258;2023-11-21T03:23:16;91604.66;;;4.89;71.52
20628;BME280;10473;42.734;24.258;2023-11-21T03:25:43;91609.31;;;4.80;71.88
20628;BME280;10473;42.734;24.258;2023-11-21T03:28:11;91604.31;;;4.75;71.91
20628;BME280;10473;42.734;24.258;2023-11-21T03:30:39;91616.25;;;4.73;71.87
20628;BME280;10473;42.734;24.258;2023-11-21T03:33:09;91605.75;;;4.73;71.37
20628;BME280;10473;42.734;24.258;2023-11-21T03:35:37;91608.28;;;4.69;71.63
20628;BME280;10473;42.734;24.258;2023-11-21T03:38:04;91600.50;;;4.73;72.41
20628;BME280;10473;42.734;24.258;2023-11-21T03:40:32;91602.34;;;4.57;71.81
20628;BME280;10473;42.734;24.258;2023-11-21T03:43:01;91594.63;;;4.64;72.68
20628;BME280;10473;42.734;24.258;2023-11-21T03:45:29;91598.03;;;4.64;72.02
20628;BME280;10473;42.734;24.258;2023-11-21T03:47:57;91590.91;;;4.65;72.54
20628;BME280;10473;42.734;24.258;2023-11-21T03:50:26;91601.31;;;4.61;72.71
20628;BME280;10473;42.734;24.258;2023-11-21T03:52:53;91608.78;;;4.59;72.80
20628;BME280;10473;42.734;24.258;2023-11-21T03:55:21;91599.88;;;4.64;72.66
20628;BME280;10473;42.734;24.258;2023-11-21T03:57:51;91603.00;;;4.54;73.51
20628;BME280;10473;42.734;24.258;2023-11-21T04:00:20;91605.81;;;4.61;72.69
20628;BME280;10473;42.734;24.258;2023-11-21T04:02:48;91603.84;;;4.58;73.74
20628;BME280;10473;42.734;24.258;2023-11-21T04:05:18;91608.19;;;4.66;72.93
20628;BME280;10473;42.734;24.258;2023-11-21T04:07:47;91601.00;;;4.63;73.43
20628;BME280;10473;42.734;24.258;2023-11-21T04:10:14;91595.09;;;4.66;73.04
20628;BME280;10473;42.734;24.258;2023-11-21T04:12:42;91582.94;;;4.61;73.77
20628;BME280;10473;42.734;24.258;2023-11-21T04:15:11;91595.09;;;4.66;73.40
20628;BME280;10473;42.734;24.258;2023-11-21T04:17:40;91590.00;;;4.73;73.13
20628;BME280;10473;42.734;24.258;2023-11-21T04:20:08;91590.84;;;4.77;72.49
20628;BME280;10473;42.734;24.258;2023-11-21T04:22:39;91594.38;;;4.69;72.98
20628;BME280;10473;42.734;24.258;2023-11-21T04:25:13;91589.06;;;4.65;73.25
20628;BME280;10473;42.734;24.258;2023-11-21T04:27:41;91604.22;;;4.72;72.90
20628;BME280;10473;42.734;24.258;2023-11-21T04:30:11;91611.00;;;4.73;73.03
20628;BME280;10473;42.734;24.258;2023-11-21T04:32:39;91614.03;;;4.75;73.39
20628;BME280;10473;42.734;24.258;2023-11-21T04:35:08;91611.84;;;4.77;73.97
20628;BME280;10473;42.734;24.258;2023-11-21T04:37:36;91607.94;;;4.71;74.39
20628;BME280;10473;42.734;24.258;2023-11-21T04:40:05;91591.59;;;4.77;74.22
20628;BME280;10473;42.734;24.258;2023-11-21T04:42:35;91589.84;;;4.81;73.60
20628;BME280;10473;42.734;24.258;2023-11-21T04:45:04;91594.66;;;4.79;73.41
20628;BME280;10473;42.734;24.258;2023-11-21T04:47:35;91584.19;;;4.79;74.33
20628;BME280;10473;42.734;24.258;2023-11-21T04:50:05;91591.88;;;4.88;73.32
20628;BME280;10473;42.734;24.258;2023-11-21T04:52:33;91591.22;;;4.91;74.31
20628;BME280;10473;42.734;24.258;2023-11-21T04:55:01;91589.78;;;4.93;73.33
20628;BME280;10473;42.734;24.258;2023-11-21T04:57:29;91596.22;;;4.96;73.88
20628;BME280;10473;42.734;24.258;2023-11-21T04:59:58;91598.84;;;4.96;73.15
20628;BME280;10473;42.734;24.258;2023-11-21T05:02:26;91595.84;;;4.97;73.57
20628;BME280;10473;42.734;24.258;2023-11-21T05:04:54;91593.69;;;4.99;73.83
20628;BME280;10473;42.734;24.258;2023-11-21T05:07:23;91596.78;;;5.05;73.25
20628;BME280;10473;42.734;24.258;2023-11-21T05:09:56;91593.09;;;5.06;73.00
20628;BME280;10473;42.734;24.258;2023-11-21T05:12:24;91595.88;;;5.13;73.52
20628;BME280;10473;42.734;24.258;2023-11-21T05:14:52;91598.41;;;5.09;74.20
20628;BME280;10473;42.734;24.258;2023-11-21T05:17:23;91592.59;;;5.16;73.89
20628;BME280;10473;42.734;24.258;2023-11-21T05:19:51;91600.88;;;5.18;73.22
20628;BME280;10473;42.734;24.258;2023-11-21T05:22:19;91592.75;;;5.23;72.67
20628;BME280;10473;42.734;24.258;2023-11-21T05:24:47;91597.59;;;5.21;72.83
20628;BME280;10473;42.734;24.258;2023-11-21T05:27:15;91596.47;;;5.22;72.99
20628;BME280;10473;42.734;24.258;2023-11-21T05:29:42;91592.41;;;5.24;73.61
20628;BME280;10473;42.734;24.258;2023-11-21T05:32:10;91594.38;;;5.27;73.67
20628;BME280;10473;42.734;24.258;2023-11-21T05:34:39;91592.91;;;5.30;72.68
20628;BME280;10473;42.734;24.258;2023-11-21T05:37:07;91591.13;;;5.34;73.31
20628;BME280;10473;42.734;24.258;2023-11-21T05:39:34;91586.31;;;5.36;73.26
20628;BME280;10473;42.734;24.258;2023-11-21T05:42:03;91579.53;;;5.35;72.45
20628;BME280;10473;42.734;24.258;2023-11-21T05:44:31;91583.16;;;5.46;73.13
20628;BME280;10473;42.734;24.258;2023-11-21T05:46:58;91584.75;;;5.50;72.43
20628;BME280;10473;42.734;24.258;2023-11-21T05:49:26;91580.00;;;5.56;72.52
20628;BME280;10473;42.734;24.258;2023-11-21T05:51:56;91570.59;;;5.55;73.04
20628;BME280;10473;42.734;24.258;2023-11-21T05:54:23;91576.34;;;5.60;73.12
20628;BME280;10473;42.734;24.258;2023-11-21T05:56:52;91576.06;;;5.65;73.16
20628;BME280;10473;42.734;24.258;2023-11-21T05:59:19;91579.28;;;5.74;72.63
20628;BME280;10473;42.734;24.258;2023-11-21T06:01:47;91592.50;;;5.78;72.43
20628;BME280;10473;42.734;24.258;2023-11-21T06:04:15;91597.25;;;5.88;71.80
20628;BME280;10473;42.734;24.258;2023-11-21T06:06:44;91604.88;;;5.93;71.58
20628;BME280;10473;42.734;24.258;2023-11-21T06:09:13;91605.88;;;6.04;72.57
20628;BME280;10473;42.734;24.258;2023-11-21T06:11:41;91606.28;;;6.06;72.46
20628;BME280;10473;42.734;24.258;2023-11-21T06:14:08;91604.03;;;6.23;72.67
20628;BME280;10473;42.734;24.258;2023-11-21T06:16:37;91613.44;;;6.24;71.60
20628;BME280;10473;42.734;24.258;2023-11-21T06:19:06;91607.44;;;6.43;72.05
20628;BME280;10473;42.734;24.258;2023-11-21T06:21:34;91606.03;;;6.49;72.32
20628;BME280;10473;42.734;24.258;2023-11-21T06:24:01;91609.34;;;6.65;71.66
20628;BME280;10473;42.734;24.258;2023-11-21T06:26:30;91601.88;;;6.67;70.96
20628;BME280;10473;42.734;24.258;2023-11-21T06:28:59;91617.09;;;6.77;71.17
20628;BME280;10473;42.734;24.258;2023-11-21T06:31:30;91622.22;;;6.89;70.40
20628;BME280;10473;42.734;24.258;2023-11-21T06:33:59;91616.09;;;7.04;69.11
20628;BME280;10473;42.734;24.258;2023-11-21T06:36:27;91610.31;;;7.17;69.85
20628;BME280;10473;42.734;24.258;2023-11-21T06:38:54;91621.03;;;7.28;69.39
20628;BME280;10473;42.734;24.258;2023-11-21T06:41:22;91619.72;;;7.41;68.48
20628;BME280;10473;42.734;24.258;2023-11-21T06:43:51;91629.75;;;7.54;69.09
20628;BME280;10473;42.734;24.258;2023-11-21T06:46:19;91625.88;;;7.71;68.36
20628;BME280;10473;42.734;24.258;2023-11-21T06:48:47;91624.31;;;7.92;68.26
20628;BME280;10473;42.734;24.258;2023-11-21T06:51:15;91618.88;;;8.34;69.11
20628;BME280;10473;42.734;24.258;2023-11-21T06:53:44;91619.19;;;8.91;67.35
20628;BME280;10473;42.734;24.258;2023-11-21T06:56:18;91629.00;;;9.64;65.13
20628;BME280;10473;42.734;24.258;2023-11-21T06:58:46;91628.38;;;10.35;63.53
20628;BME280;10473;42.734;24.258;2023-11-21T07:01:15;91625.72;;;11.13;62.33
20628;BME280;10473;42.734;24.258;2023-11-21T07:03:43;91637.25;;;12.05;57.09
20628;BME280;10473;42.734;24.258;2023-11-21T07:06:11;91622.78;;;12.55;54.23
20628;BME280;10473;42.734;24.258;2023-11-21T07:08:39;91629.56;;;12.70;50.31
20628;BME280;10473;42.734;24.258;2023-11-21T07:11:06;91621.03;;;13.24;50.60
20628;BME280;10473;42.734;24.258;2023-11-21T07:13:34;91631.00;;;13.78;49.78
20628;BME280;10473;42.734;24.258;2023-11-21T07:16:02;91629.66;;;14.07;47.32
20628;BME280;10473;42.734;24.258;2023-11-21T07:18:32;91631.50;;;14.10;47.23
20628;BME280;10473;42.734;24.258;2023-11-21T07:20:59;91639.81;;;14.26;45.25
20628;BME280;10473;42.734;24.258;2023-11-21T07:23:28;91626.91;;;14.21;45.06
20628;BME280;10473;42.734;24.258;2023-11-21T07:25:56;91637.16;;;14.26;45.08
20628;BME280;10473;42.734;24.258;2023-11-21T07:28:24;91630.19;;;14.35;45.69
20628;BME280;10473;42.734;24.258;2023-11-21T07:30:52;91630.13;;;14.42;45.05
20628;BME280;10473;42.734;24.258;2023-11-21T07:33:20;91624.72;;;14.53;45.01
20628;BME280;10473;42.734;24.258;2023-11-21T07:35:49;91626.16;;;14.20;43.60
20628;BME280;10473;42.734;24.258;2023-11-21T07:38:17;91631.06;;;14.25;44.56
20628;BME280;10473;42.734;24.258;2023-11-21T07:40:45;91630.81;;;14.50;43.95
20628;BME280;10473;42.734;24.258;2023-11-21T07:43:13;91625.75;;;14.62;43.40
20628;BME280;10473;42.734;24.258;2023-11-21T07:45:42;91627.00;;;15.25;44.36
20628;BME280;10473;42.734;24.258;2023-11-21T07:48:09;91621.41;;;15.46;41.73
20628;BME280;10473;42.734;24.258;2023-11-21T07:50:37;91627.44;;;16.06;41.44
20628;BME280;10473;42.734;24.258;2023-11-21T07:53:06;91623.31;;;16.71;40.64
20628;BME280;10473;42.734;24.258;2023-11-21T07:55:34;91625.66;;;17.31;39.07
20628;BME280;10473;42.734;24.258;2023-11-21T07:58:02;91624.25;;;17.03;37.83
20628;BME280;10473;42.734;24.258;2023-11-21T08:00:30;91617.78;;;16.81;36.97
20628;BME280;10473;42.734;24.258;2023-11-21T08:02:58;91619.31;;;16.82;39.25
20628;BME280;10473;42.734;24.258;2023-11-21T08:05:26;91618.25;;;17.58;37.64
20628;BME280;10473;42.734;24.258;2023-11-21T08:07:53;91613.97;;;18.12;36.44
20628;BME280;10473;42.734;24.258;2023-11-21T08:10:22;91615.50;;;18.29;35.79
20628;BME280;10473;42.734;24.258;2023-11-21T08:12:51;91617.50;;;18.73;35.52
20628;BME280;10473;42.734;24.258;2023-11-21T08:15:19;91615.34;;;18.68;34.87
20628;BME280;10473;42.734;24.258;2023-11-21T08:17:49;91621.91;;;19.11;34.79
20628;BME280;10473;42.734;24.258;2023-11-21T08:20:17;91628.63;;;19.32;35.15
20628;BME280;10473;42.734;24.258;2023-11-21T08:22:45;91631.09;;;19.10;33.54
20628;BME280;10473;42.734;24.258;2023-11-21T08:25:14;91632.38;;;19.22;33.59
20628;BME280;10473;42.734;24.258;2023-11-21T08:27:43;91636.59;;;19.64;33.07
20628;BME280;10473;42.734;24.258;2023-11-21T08:30:11;91627.31;;;20.18;32.46
20628;BME280;10473;42.734;24.258;2023-11-21T08:32:40;91627.00;;;21.00;32.88
20628;BME280;10473;42.734;24.258;2023-11-21T08:35:08;91619.06;;;21.52;31.34
20628;BME280;10473;42.734;24.258;2023-11-21T08:37:36;91617.53;;;21.73;30.65
20628;BME280;10473;42.734;24.258;2023-11-21T08:40:06;91609.88;;;21.93;29.22
20628;BME280;10473;42.734;24.258;2023-11-21T08:42:35;91610.31;;;22.22;28.87
20628;BME280;10473;42.734;24.258;2023-11-21T08:45:06;91609.13;;;22.62;28.76
20628;BME280;10473;42.734;24.258;2023-11-21T08:47:35;91611.41;;;22.03;28.39
20628;BME280;10473;42.734;24.258;2023-11-21T08:50:03;91603.56;;;21.10;29.17
20628;BME280;10473;42.734;24.258;2023-11-21T08:52:32;91606.38;;;21.62;29.13
20628;BME280;10473;42.734;24.258;2023-11-21T08:55:00;91598.50;;;20.78;30.15
20628;BME280;10473;42.734;24.258;2023-11-21T08:57:34;91601.91;;;20.32;29.75
20628;BME280;10473;42.734;24.258;2023-11-21T09:00:03;91592.28;;;19.81;31.23
20628;BME280;10473;42.734;24.258;2023-11-21T09:02:35;91596.88;;;19.43;31.81
20628;BME280;10473;42.734;24.258;2023-11-21T09:05:04;91585.72;;;19.69;32.78
20628;BME280;10473;42.734;24.258;2023-11-21T09:07:32;91588.88;;;19.93;32.40
20628;BME280;10473;42.734;24.258;2023-11-21T09:09:59;91578.00;;;19.96;31.82
20628;BME280;10473;42.734;24.258;2023-11-21T09:12:27;91577.78;;;20.28;30.50
20628;BME280;10473;42.734;24.258;2023-11-21T09:14:55;91574.56;;;20.33;30.98
20628;BME280;10473;42.734;24.258;2023-11-21T09:17:22;91566.22;;;20.65;30.56
20628;BME280;10473;42.734;24.258;2023-11-21T09:19:51;91558.19;;;20.87;29.67
20628;BME280;10473;42.734;24.258;2023-11-21T09:22:19;91557.13;;;20.38;30.06
20628;BME280;10473;42.734;24.258;2023-11-21T09:24:47;91566.47;;;20.80;30.52
20628;BME280;10473;42.734;24.258;2023-11-21T09:27:14;91561.19;;;20.89;29.71
20628;BME280;10473;42.734;24.258;2023-11-21T09:29:43;91566.63;;;21.53;29.10
20628;BME280;10473;42.734;24.258;2023-11-21T09:32:11;91556.31;;;22.22;28.74
20628;BME280;10473;42.734;24.258;2023-11-21T09:34:40;91560.84;;;22.82;27.68
20628;BME280;10473;42.734;24.258;2023-11-21T09:37:09;91556.59;;;22.15;27.79
20628;BME280;10473;42.734;24.258;2023-11-21T09:39:37;91554.19;;;21.77;27.79
20628;BME280;10473;42.734;24.258;2023-11-21T09:42:10;91543.53;;;21.74;28.34
20628;BME280;10473;42.734;24.258;2023-11-21T09:44:45;91544.22;;;21.96;28.53
20628;BME280;10473;42.734;24.258;2023-11-21T09:47:15;91536.94;;;21.75;28.52
20628;BME280;10473;42.734;24.258;2023-11-21T09:49:47;91538.78;;;22.17;28.44
20628;BME280;10473;42.734;24.258;2023-11-21T09:52:22;91535.31;;;21.56;28.74
20628;BME280;10473;42.734;24.258;2023-11-21T09:54:52;91525.34;;;21.96;29.14
20628;BME280;10473;42.734;24.258;2023-11-21T09:57:20;91527.66;;;21.76;28.37
20628;BME280;10473;42.734;24.258;2023-11-21T09:59:51;91523.91;;;20.87;29.58
20628;BME280;10473;42.734;24.258;2023-11-21T10:02:47;91516.97;;;20.31;30.17
20628;BME280;10473;42.734;24.258;2023-11-21T10:05:16;91506.44;;;20.24;30.01
20628;BME280;10473;42.734;24.258;2023-11-21T10:07:45;91504.50;;;20.37;30.46
20628;BME280;10473;42.734;24.258;2023-11-21T10:10:14;91502.44;;;20.28;30.53
20628;BME280;10473;42.734;24.258;2023-11-21T10:12:48;91497.53;;;19.52;30.77
20628;BME280;10473;42.734;24.258;2023-11-21T10:15:17;91484.22;;;19.48;30.80
20628;BME280;10473;42.734;24.258;2023-11-21T10:17:46;91485.28;;;19.26;31.25
20628;BME280;10473;42.734;24.258;2023-11-21T10:20:16;91481.63;;;19.32;31.09
20628;BME280;10473;42.734;24.258;2023-11-21T10:22:45;91475.25;;;19.14;31.89
20628;BME280;10473;42.734;24.258;2023-11-21T10:25:13;91460.03;;;19.36;31.25
20628;BME280;10473;42.734;24.258;2023-11-21T10:27:42;91473.50;;;18.95;30.91
20628;BME280;10473;42.734;24.258;2023-11-21T10:30:10;91472.38;;;18.80;31.38
20628;BME280;10473;42.734;24.258;2023-11-21T10:32:38;91469.47;;;18.87;31.50
20628;BME280;10473;42.734;24.258;2023-11-21T10:35:07;91452.03;;;19.20;31.91
20628;BME280;10473;42.734;24.258;2023-11-21T10:37:37;91436.34;;;19.06;31.87
20628;BME280;10473;42.734;24.258;2023-11-21T10:40:10;91402.00;;;19.26;31.83
20628;BME280;10473;42.734;24.258;2023-11-21T10:42:38;91393.88;;;18.35;32.63
20628;BME280;10473;42.734;24.258;2023-11-21T10:45:07;91393.72;;;18.54;33.10
20628;BME280;10473;42.734;24.258;2023-11-21T10:47:39;91406.50;;;18.06;32.91
20628;BME280;10473;42.734;24.258;2023-11-21T10:50:08;91412.06;;;17.83;33.68
20628;BME280;10473;42.734;24.258;2023-11-21T10:52:37;91410.09;;;17.39;34.40
20628;BME280;10473;42.734;24.258;2023-11-21T10:55:17;91416.16;;;16.72;36.00
20628;BME280;10473;42.734;24.258;2023-11-21T10:57:49;91412.81;;;16.48;36.22
20628;BME280;10473;42.734;24.258;2023-11-21T11:00:19;91424.44;;;16.19;36.97
20628;BME280;10473;42.734;24.258;2023-11-21T11:02:49;91416.88;;;15.94;37.23
20628;BME280;10473;42.734;24.258;2023-11-21T11:05:19;91418.13;;;15.90;37.77
20628;BME280;10473;42.734;24.258;2023-11-21T11:07:48;91418.63;;;16.24;38.60
20628;BME280;10473;42.734;24.258;2023-11-21T11:10:22;91422.53;;;16.39;37.90
20628;BME280;10473;42.734;24.258;2023-11-21T11:12:54;91424.75;;;16.99;37.49
20628;BME280;10473;42.734;24.258;2023-11-21T11:15:21;91424.72;;;17.66;36.54
20628;BME280;10473;42.734;24.258;2023-11-21T11:17:49;91417.41;;;17.99;34.62
20628;BME280;10473;42.734;24.258;2023-11-21T11:20:18;91419.00;;;18.12;35.20
20628;BME280;10473;42.734;24.258;2023-11-21T11:22:54;91406.38;;;17.97;34.51
20628;BME280;10473;42.734;24.258;2023-11-21T11:25:35;91412.41;;;17.69;35.78
20628;BME280;10473;42.734;24.258;2023-11-21T11:28:08;91403.22;;;16.86;36.49
20628;BME280;10473;42.734;24.258;2023-11-21T11:30:49;91409.28;;;16.71;37.24
20628;BME280;10473;42.734;24.258;2023-11-21T11:33:29;91413.41;;;16.75;37.79
20628;BME280;10473;42.734;24.258;2023-11-21T11:36:03;91407.78;;;16.31;37.57
20628;BME280;10473;42.734;24.258;2023-11-21T11:38:32;91404.16;;;16.21;38.63
20628;BME280;10473;42.734;24.258;2023-11-21T11:41:04;91404.41;;;16.07;38.25
20628;BME280;10473;42.734;24.258;2023-11-21T11:43:32;91399.78;;;16.11;38.65
20628;BME280;10473;42.734;24.258;2023-11-21T11:46:10;91403.69;;;16.26;38.10
20628;BME280;10473;42.734;24.258;2023-11-21T11:48:39;91395.78;;;16.39;37.95
20628;BME280;10473;42.734;24.258;2023-11-21T11:51:11;91396.19;;;16.57;38.02
20628;BME280;10473;42.734;24.258;2023-11-21T11:53:41;91392.91;;;16.49;37.79
20628;BME280;10473;42.734;24.258;2023-11-21T11:56:24;91388.72;;;16.68;37.83
20628;BME280;10473;42.734;24.258;2023-11-21T11:58:54;91374.88;;;16.89;37.74
20628;BME280;10473;42.734;24.258;2023-11-21T12:01:24;91378.25;;;16.93;37.51
20628;BME280;10473;42.734;24.258;2023-11-21T12:04:23;91376.88;;;16.85;37.50
20628;BME280;10473;42.734;24.258;2023-11-21T12:07:00;91372.28;;;16.50;37.96
20628;BME280;10473;42.734;24.258;2023-11-21T12:09:30;91375.97;;;16.17;38.44
20628;BME280;10473;42.734;24.258;2023-11-21T12:12:00;91361.94;;;15.93;39.19
20628;BME280;10473;42.734;24.258;2023-11-21T12:14:30;91370.66;;;15.55;39.61
20628;BME280;10473;42.734;24.258;2023-11-21T12:16:58;91371.13;;;15.50;40.35
20628;BME280;10473;42.734;24.258;2023-11-21T12:19:26;91360.00;;;15.28;41.41
20628;BME280;10473;42.734;24.258;2023-11-21T12:21:54;91348.28;;;14.99;41.45
20628;BME280;10473;42.734;24.258;2023-11-21T12:24:22;91342.63;;;14.94;41.73
20628;BME280;10473;42.734;24.258;2023-11-21T12:26:50;91346.94;;;14.88;41.94
20628;BME280;10473;42.734;24.258;2023-11-21T12:29:19;91340.41;;;14.66;41.82
20628;BME280;10473;42.734;24.258;2023-11-21T12:31:49;91350.38;;;14.62;43.00
20628;BME280;10473;42.734;24.258;2023-11-21T12:34:17;91347.19;;;14.44;42.98
20628;BME280;10473;42.734;24.258;2023-11-21T12:36:45;91348.53;;;14.29;43.33
20628;BME280;10473;42.734;24.258;2023-11-21T12:39:13;91339.38;;;14.30;43.44
20628;BME280;10473;42.734;24.258;2023-11-21T12:41:40;91343.34;;;14.15;43.75
20628;BME280;10473;42.734;24.258;2023-11-21T12:44:11;91346.94;;;14.01;44.38
20628;BME280;10473;42.734;24.258;2023-11-21T12:46:43;91345.72;;;14.06;44.41
20628;BME280;10473;42.734;24.258;2023-11-21T12:49:14;91342.00;;;14.00;45.02
20628;BME280;10473;42.734;24.258;2023-11-21T12:51:44;91337.13;;;13.95;44.44
20628;BME280;10473;42.734;24.258;2023-11-21T12:54:13;91338.44;;;13.80;44.77
20628;BME280;10473;42.734;24.258;2023-11-21T12:56:45;91341.91;;;13.77;45.15
20628;BME280;10473;42.734;24.258;2023-11-21T12:59:14;91345.44;;;13.67;45.07
20628;BME280;10473;42.734;24.258;2023-11-21T13:01:46;91354.06;;;13.78;45.87
20628;BME280;10473;42.734;24.258;2023-11-21T13:04:17;91359.84;;;13.73;45.83